createdAt,value
2022-08-17T00:00:13.621Z,8.45
2022-08-17T00:03:02.837Z,8.55
2022-08-17T00:05:38.804Z,8.45
2022-08-17T00:08:06.208Z,8.65
2022-08-17T00:10:33.969Z,9.50
2022-08-17T00:13:05.179Z,9.00
2022-08-17T00:15:32.542Z,8.73
2022-08-17T00:18:00.057Z,8.02
2022-08-17T00:20:29.205Z,8.25
2022-08-17T00:23:11.736Z,8.80
2022-08-17T00:25:41.900Z,8.65
2022-08-17T00:28:09.363Z,9.73
2022-08-17T00:30:52.922Z,9.20
2022-08-17T00:33:26.128Z,8.68
2022-08-17T00:35:55.047Z,8.40
2022-08-17T00:38:23.572Z,8.07
2022-08-17T00:41:00.438Z,8.57
2022-08-17T00:43:44.503Z,8.50
2022-08-17T00:46:36.487Z,9.20
2022-08-17T00:49:05.856Z,8.50
2022-08-17T00:51:46.560Z,8.70
2022-08-17T00:54:22.557Z,8.30
2022-08-17T00:57:00.324Z,8.35
2022-08-17T00:59:31.983Z,8.45
2022-08-17T01:02:00.270Z,8.40
2022-08-17T01:04:29.450Z,9.23
2022-08-17T01:06:58.475Z,8.52
2022-08-17T01:09:26.821Z,8.63
2022-08-17T01:11:54.098Z,8.45
2022-08-17T01:14:25.739Z,9.25
2022-08-17T01:16:55.748Z,9.13
2022-08-17T01:19:28.312Z,8.30
2022-08-17T01:21:55.629Z,8.07
2022-08-17T01:24:23.102Z,7.47
2022-08-17T01:26:50.588Z,7.63
2022-08-17T01:29:19.389Z,8.45
2022-08-17T01:31:53.061Z,7.63
2022-08-17T01:34:21.563Z,7.35
2022-08-17T01:36:50.064Z,7.20
2022-08-17T01:39:37.474Z,6.72
2022-08-17T01:42:09.546Z,6.40
2022-08-17T01:44:37.710Z,6.03
2022-08-17T01:47:06.472Z,6.50
2022-08-17T01:49:34.094Z,6.15
2022-08-17T01:52:11.030Z,6.40
2022-08-17T01:54:41.618Z,5.90
2022-08-17T01:57:09.938Z,6.10
2022-08-17T01:59:37.295Z,5.80
2022-08-17T02:02:07.276Z,5.47
2022-08-17T02:04:34.728Z,5.53
2022-08-17T02:07:01.974Z,5.50
2022-08-17T02:09:31.388Z,6.10
2022-08-17T02:12:37.219Z,5.45
2022-08-17T02:14:48.152Z,5.57
2022-08-17T02:17:15.475Z,6.40
2022-08-17T02:19:43.044Z,5.72
2022-08-17T02:22:11.040Z,6.35
2022-08-17T02:24:59.360Z,6.25
2022-08-17T02:27:26.952Z,5.55
2022-08-17T02:29:54.301Z,5.70
2022-08-17T02:32:28.216Z,6.18
2022-08-17T02:37:25.821Z,6.00
2022-08-17T02:39:53.306Z,5.85
2022-08-17T02:42:31.500Z,5.47
2022-08-17T02:44:59.091Z,6.40
2022-08-17T02:47:26.838Z,6.57
2022-08-17T02:49:55.916Z,5.47
2022-08-17T02:52:42.554Z,6.25
2022-08-17T02:55:27.353Z,6.00
2022-08-17T02:57:55.248Z,6.00
2022-08-17T03:00:35.554Z,5.97
2022-08-17T03:03:05.167Z,5.57
2022-08-17T03:05:35.485Z,5.80
2022-08-17T03:08:06.390Z,5.50
2022-08-17T03:10:33.918Z,5.50
2022-08-17T03:13:01.808Z,5.18
2022-08-17T03:15:33.507Z,4.97
2022-08-17T03:18:02.370Z,4.90
2022-08-17T03:20:31.527Z,5.00
2022-08-17T03:23:01.976Z,5.20
2022-08-17T03:25:35.871Z,4.82
2022-08-17T03:28:05.276Z,4.80
2022-08-17T03:30:33.038Z,5.38
2022-08-17T03:33:02.719Z,5.10
2022-08-17T03:35:34.901Z,4.97
2022-08-17T03:38:02.394Z,4.72
2022-08-17T03:40:34.789Z,5.13
2022-08-17T03:43:19.149Z,4.97
2022-08-17T03:46:05.114Z,5.20
2022-08-17T03:48:51.683Z,4.60
2022-08-17T03:51:43.013Z,4.57
2022-08-17T03:54:29.220Z,4.18
2022-08-17T03:57:07.621Z,4.18
2022-08-17T03:59:35.976Z,5.22
2022-08-17T04:02:12.129Z,4.30
2022-08-17T04:04:40.038Z,4.07
2022-08-17T04:07:07.884Z,3.97
2022-08-17T04:09:36.532Z,4.30
2022-08-17T04:12:05.320Z,3.92
2022-08-17T04:14:51.494Z,4.00
2022-08-17T04:17:21.700Z,3.70
2022-08-17T04:19:49.054Z,4.25
2022-08-17T04:22:32.314Z,3.72
2022-08-17T04:25:03.700Z,3.80
2022-08-17T04:27:31.058Z,3.70
2022-08-17T04:29:58.675Z,3.88
2022-08-17T04:33:03.523Z,3.53
2022-08-17T04:35:17.397Z,3.53
2022-08-17T04:37:45.897Z,3.63
2022-08-17T04:40:33.667Z,3.58
2022-08-17T04:43:07.353Z,3.20
2022-08-17T04:45:38.191Z,3.60
2022-08-17T04:48:05.613Z,3.65
2022-08-17T04:50:35.255Z,3.67
2022-08-17T04:53:02.918Z,3.03
2022-08-17T04:55:30.301Z,3.40
2022-08-17T04:57:57.737Z,3.50
2022-08-17T05:00:26.018Z,2.80
2022-08-17T05:02:55.325Z,3.40
2022-08-17T05:05:32.978Z,3.30
2022-08-17T05:08:02.426Z,3.35
2022-08-17T05:10:33.503Z,3.20
2022-08-17T05:13:09.463Z,3.33
2022-08-17T05:15:39.525Z,3.40
2022-08-17T05:18:12.936Z,3.20
2022-08-17T05:20:41.378Z,3.45
2022-08-17T05:23:11.701Z,3.10
2022-08-17T05:25:42.486Z,3.40
2022-08-17T05:28:23.513Z,3.42
2022-08-17T05:30:51.991Z,3.30
2022-08-17T05:33:47.526Z,3.25
2022-08-17T05:36:43.542Z,3.22
2022-08-17T05:39:03.709Z,3.40
2022-08-17T05:41:30.975Z,3.20
2022-08-17T05:43:58.318Z,3.47
2022-08-17T05:46:29.033Z,3.15
2022-08-17T05:49:11.026Z,3.35
2022-08-17T05:52:03.298Z,3.35
2022-08-17T05:54:42.232Z,3.58
2022-08-17T05:57:19.728Z,3.58
2022-08-17T06:00:14.697Z,3.47
2022-08-17T06:02:54.317Z,4.47
2022-08-17T06:05:30.459Z,4.07
2022-08-17T06:08:24.071Z,4.30
2022-08-17T06:11:19.879Z,4.47
2022-08-17T06:14:03.737Z,4.07
2022-08-17T06:16:36.859Z,3.97
2022-08-17T06:19:16.861Z,4.90
2022-08-17T06:21:48.968Z,5.00
2022-08-17T06:24:43.058Z,5.20
2022-08-17T06:27:22.653Z,5.07
2022-08-17T06:29:56.150Z,5.60
2022-08-17T06:32:25.090Z,5.33
2022-08-17T06:34:53.289Z,5.20
2022-08-17T06:37:39.103Z,5.53
2022-08-17T06:40:28.876Z,5.07
2022-08-17T06:43:15.096Z,5.00
2022-08-17T06:45:49.052Z,4.65
2022-08-17T06:48:25.532Z,5.55
2022-08-17T06:51:07.163Z,5.07
2022-08-17T06:53:48.205Z,4.70
2022-08-17T06:56:53.354Z,5.18
2022-08-17T06:59:56.330Z,4.97
2022-08-17T07:03:02.638Z,4.53
2022-08-17T07:05:38.778Z,4.88
2022-08-17T07:08:35.158Z,4.60
2022-08-17T07:11:10.976Z,5.00
2022-08-17T07:13:43.826Z,5.20
2022-08-17T07:16:30.957Z,4.47
2022-08-17T07:18:59.482Z,4.72
2022-08-17T07:21:51.973Z,4.28
2022-08-17T07:24:30.725Z,4.82
2022-08-17T07:27:27.551Z,4.60
2022-08-17T07:30:16.387Z,4.57
2022-08-17T07:32:59.479Z,4.18
2022-08-17T07:35:37.554Z,3.92
2022-08-17T07:38:25.456Z,4.32
2022-08-17T07:41:03.656Z,4.63
2022-08-17T07:43:45.621Z,4.10
2022-08-17T07:46:41.169Z,3.90
2022-08-17T07:49:12.578Z,4.03
2022-08-17T07:51:50.674Z,4.03
2022-08-17T07:54:28.079Z,3.97
2022-08-17T07:57:09.438Z,4.50
2022-08-17T07:59:43.264Z,3.80
2022-08-17T08:02:17.096Z,3.75
2022-08-17T08:05:06.798Z,4.47
2022-08-17T08:07:55.540Z,4.18
2022-08-17T08:10:31.439Z,4.03
2022-08-17T08:13:32.299Z,4.22
2022-08-17T08:16:19.791Z,4.10
2022-08-17T08:18:55.732Z,4.22
2022-08-17T08:21:46.305Z,5.55
2022-08-17T08:24:41.104Z,4.93
2022-08-17T08:27:33.515Z,4.40
2022-08-17T08:30:14.129Z,5.93
2022-08-17T08:33:12.569Z,7.18
2022-08-17T08:35:48.798Z,6.55
2022-08-17T08:38:28.257Z,6.00
2022-08-17T08:41:00.411Z,5.70
2022-08-17T08:43:43.070Z,5.70
2022-08-17T08:46:31.060Z,5.60
2022-08-17T08:49:59.097Z,5.85
2022-08-17T08:52:50.149Z,6.00
2022-08-17T08:55:38.827Z,5.65
2022-08-17T08:58:31.382Z,6.13
2022-08-17T09:01:16.871Z,5.32
2022-08-17T09:04:28.692Z,5.38
2022-08-17T09:07:21.032Z,5.47
2022-08-17T09:09:51.233Z,5.45
2022-08-17T09:12:47.606Z,5.80
2022-08-17T09:15:27.662Z,4.70
2022-08-17T09:19:03.367Z,5.70
2022-08-17T09:21:13.978Z,5.15
2022-08-17T09:24:00.059Z,4.93
2022-08-17T09:26:46.596Z,5.00
2022-08-17T09:29:16.722Z,4.53
2022-08-17T09:32:01.563Z,4.90
2022-08-17T09:35:00.200Z,4.80
2022-08-17T09:37:56.224Z,4.80
2022-08-17T09:40:39.767Z,4.78
2022-08-17T09:43:25.880Z,4.75
2022-08-17T09:46:02.532Z,4.85
2022-08-17T09:49:10.904Z,4.80
2022-08-17T09:51:44.139Z,4.47
2022-08-17T09:54:38.666Z,4.93
2022-08-17T09:57:29.974Z,4.53
2022-08-17T10:00:01.029Z,4.22
2022-08-17T10:02:43.526Z,4.20
2022-08-17T10:05:32.508Z,4.65
2022-08-17T10:07:59.729Z,4.40
2022-08-17T10:11:00.119Z,4.10
2022-08-17T10:13:41.244Z,4.55
2022-08-17T10:16:41.068Z,4.10
2022-08-17T10:19:33.392Z,4.07
2022-08-17T10:22:39.880Z,3.80
2022-08-17T10:25:42.906Z,4.30
2022-08-17T10:28:25.805Z,4.35
2022-08-17T10:31:31.081Z,4.13
2022-08-17T10:33:51.442Z,3.53
2022-08-17T10:36:46.420Z,4.07
2022-08-17T10:41:59.283Z,3.42
2022-08-17T10:44:45.539Z,3.65
2022-08-17T10:47:16.786Z,3.90
2022-08-17T10:49:55.957Z,3.60
2022-08-17T10:52:25.171Z,3.58
2022-08-17T10:54:54.870Z,3.95
2022-08-17T10:57:45.102Z,4.15
2022-08-17T11:00:25.638Z,3.42
2022-08-17T11:02:57.648Z,3.40
2022-08-17T11:05:59.767Z,3.40
2022-08-17T11:08:57.566Z,3.55
2022-08-17T11:11:58.703Z,3.63
2022-08-17T11:15:22.722Z,3.17
2022-08-17T11:18:15.486Z,3.17
2022-08-17T11:20:54.558Z,3.17
2022-08-17T11:23:42.970Z,3.58
2022-08-17T11:26:25.896Z,3.53
2022-08-17T11:29:05.162Z,3.28
2022-08-17T11:31:37.923Z,3.15
2022-08-17T11:34:26.494Z,3.45
2022-08-17T11:37:06.209Z,3.45
2022-08-17T11:40:06.003Z,3.33
2022-08-17T11:42:59.116Z,3.20
2022-08-17T11:46:03.104Z,3.28
2022-08-17T11:49:06.451Z,3.30
2022-08-17T11:51:55.031Z,3.53
2022-08-17T11:54:33.626Z,3.20
2022-08-17T11:57:29.486Z,3.60
2022-08-17T12:02:35.900Z,3.25
2022-08-17T12:05:15.254Z,3.17
2022-08-17T12:08:02.827Z,3.50
2022-08-17T12:10:34.254Z,3.20
2022-08-17T12:13:14.691Z,3.47
2022-08-17T12:15:49.622Z,3.53
2022-08-17T12:18:28.695Z,3.20
2022-08-17T12:21:07.036Z,3.50
2022-08-17T12:23:51.375Z,3.42
2022-08-17T12:26:21.974Z,3.42
2022-08-17T12:28:57.229Z,3.22
2022-08-17T12:31:44.313Z,3.40
2022-08-17T12:34:26.504Z,3.05
2022-08-17T12:36:59.825Z,3.40
2022-08-17T12:39:28.765Z,3.58
2022-08-17T12:44:35.619Z,3.38
2022-08-17T12:47:21.918Z,3.85
2022-08-17T12:49:53.045Z,3.60
2022-08-17T12:52:20.322Z,3.40
2022-08-17T12:55:11.138Z,3.50
2022-08-17T12:57:47.088Z,3.50
2022-08-17T13:00:31.874Z,3.47
2022-08-17T13:03:19.329Z,3.58
2022-08-17T13:05:52.648Z,3.72
2022-08-17T13:08:45.044Z,3.65
2022-08-17T13:11:16.427Z,3.67
2022-08-17T13:13:47.015Z,3.50
2022-08-17T13:16:14.405Z,3.40
2022-08-17T13:18:54.869Z,3.45
2022-08-17T13:21:30.484Z,3.65
2022-08-17T13:24:20.193Z,3.35
2022-08-17T13:27:09.598Z,3.35
2022-08-17T13:29:45.667Z,3.10
2022-08-17T13:32:31.162Z,3.65
2022-08-17T13:35:13.829Z,3.50
2022-08-17T13:38:02.189Z,3.47
2022-08-17T13:40:38.978Z,3.60
2022-08-17T13:43:06.345Z,3.20
2022-08-17T13:45:43.816Z,3.40
2022-08-17T13:48:32.009Z,3.45
2022-08-17T13:50:59.613Z,3.58
2022-08-17T13:53:50.846Z,3.42
2022-08-17T13:56:46.685Z,3.15
2022-08-17T13:59:55.171Z,3.50
2022-08-17T14:02:26.062Z,3.38
2022-08-17T14:04:57.026Z,3.30
2022-08-17T14:07:30.220Z,3.17
2022-08-17T14:10:17.360Z,3.30
2022-08-17T14:12:46.283Z,3.08
2022-08-17T14:15:17.204Z,3.28
2022-08-17T14:17:44.564Z,3.30
2022-08-17T14:20:13.817Z,3.30
2022-08-17T14:22:45.345Z,2.97
2022-08-17T14:25:15.121Z,3.42
2022-08-17T14:27:52.745Z,3.47
2022-08-17T14:30:23.321Z,3.63
2022-08-17T14:32:52.016Z,3.15
2022-08-17T14:35:22.698Z,3.30
2022-08-17T14:37:51.393Z,2.90
2022-08-17T14:40:21.031Z,3.08
2022-08-17T14:42:48.489Z,3.30
2022-08-17T14:45:31.830Z,3.05
2022-08-17T14:48:07.580Z,3.25
2022-08-17T14:53:11.143Z,3.22
2022-08-17T14:55:39.944Z,3.70
2022-08-17T14:58:09.089Z,3.65
2022-08-17T15:00:37.231Z,3.35
2022-08-17T15:03:05.491Z,3.13
2022-08-17T15:05:36.520Z,3.20
2022-08-17T15:08:05.498Z,3.22
2022-08-17T15:10:33.637Z,3.47
2022-08-17T15:13:01.332Z,3.45
2022-08-17T15:15:29.816Z,3.47
2022-08-17T15:17:58.010Z,3.55
2022-08-17T15:20:28.683Z,3.58
2022-08-17T15:22:57.459Z,3.30
2022-08-17T15:25:27.611Z,3.90
2022-08-17T15:27:55.962Z,3.40
2022-08-17T15:30:25.732Z,3.42
2022-08-17T15:32:55.575Z,3.75
2022-08-17T15:35:29.131Z,4.05
2022-08-17T15:38:11.734Z,4.18
2022-08-17T15:40:45.360Z,3.90
2022-08-17T15:43:27.727Z,3.80
2022-08-17T15:46:12.171Z,3.90
2022-08-17T15:48:42.450Z,4.13
2022-08-17T15:51:15.194Z,3.97
2022-08-17T15:53:45.402Z,4.25
2022-08-17T15:56:14.305Z,4.57
2022-08-17T15:58:43.652Z,4.22
2022-08-17T16:01:16.468Z,4.30
2022-08-17T16:04:04.096Z,4.70
2022-08-17T16:06:32.256Z,4.32
2022-08-17T16:09:00.406Z,4.68
2022-08-17T16:11:27.792Z,4.70
2022-08-17T16:13:56.161Z,4.13
2022-08-17T16:16:24.275Z,4.57
2022-08-17T16:18:53.672Z,4.70
2022-08-17T16:21:26.703Z,4.90
2022-08-17T16:24:00.534Z,4.93
2022-08-17T16:26:29.812Z,4.53
2022-08-17T16:28:58.149Z,4.90
2022-08-17T16:31:25.875Z,5.82
2022-08-17T16:33:58.485Z,7.07
2022-08-17T16:36:41.464Z,6.38
2022-08-17T16:39:22.114Z,6.47
2022-08-17T16:41:50.314Z,7.68
2022-08-17T16:44:20.288Z,7.53
2022-08-17T16:46:48.461Z,8.38
2022-08-17T16:49:24.403Z,9.48
2022-08-17T16:52:05.786Z,9.23
2022-08-17T16:54:35.481Z,8.85
2022-08-17T16:57:05.087Z,9.23
2022-08-17T16:59:40.897Z,8.68
2022-08-17T17:02:15.900Z,8.52
2022-08-17T17:05:06.635Z,8.45
2022-08-17T17:07:38.648Z,8.00
2022-08-17T17:10:10.894Z,8.60
2022-08-17T17:13:01.724Z,8.48
2022-08-17T17:15:39.449Z,8.50
2022-08-17T17:18:11.509Z,8.35
2022-08-17T17:20:55.140Z,8.32
2022-08-17T17:23:32.249Z,8.65
2022-08-17T17:26:25.127Z,8.27
2022-08-17T17:29:10.634Z,8.25
2022-08-17T17:31:50.921Z,8.07
2022-08-17T17:34:19.517Z,7.90
2022-08-17T17:36:53.973Z,7.63
2022-08-17T17:39:41.583Z,7.72
2022-08-17T17:42:20.548Z,7.93
2022-08-17T17:45:10.642Z,7.88
2022-08-17T17:47:38.393Z,7.68
2022-08-17T17:50:07.349Z,7.10
2022-08-17T17:52:52.475Z,7.07
2022-08-17T17:55:32.828Z,7.38
2022-08-17T17:58:16.634Z,8.10
2022-08-17T18:01:23.046Z,7.57
2022-08-17T18:04:20.688Z,8.32
2022-08-17T18:06:54.453Z,8.00
2022-08-17T18:10:01.636Z,8.98
2022-08-17T18:12:55.145Z,9.80
2022-08-17T18:15:42.873Z,9.93
2022-08-17T18:18:17.198Z,9.80
2022-08-17T18:23:27.701Z,10.52
2022-08-17T18:25:56.477Z,10.80
2022-08-17T18:28:36.589Z,10.25
2022-08-17T18:31:06.068Z,10.73
2022-08-17T18:33:34.073Z,9.90
2022-08-17T18:36:01.686Z,10.35
2022-08-17T18:38:36.362Z,10.50
2022-08-17T18:41:30.388Z,10.50
2022-08-17T18:44:04.018Z,9.93
2022-08-17T18:46:36.539Z,9.38
2022-08-17T18:49:28.997Z,8.75
2022-08-17T18:52:16.924Z,7.97
2022-08-17T18:55:02.998Z,8.20
2022-08-17T18:57:37.872Z,7.60
2022-08-17T19:00:42.427Z,6.72
2022-08-17T19:03:23.337Z,6.40
2022-08-17T19:06:10.889Z,5.95
2022-08-17T19:08:38.322Z,6.10
2022-08-17T19:11:16.594Z,5.55
2022-08-17T19:13:58.352Z,5.55
2022-08-17T19:16:31.685Z,5.22
2022-08-17T19:19:09.278Z,5.35
2022-08-17T19:21:53.797Z,5.18
2022-08-17T19:24:24.279Z,5.57
2022-08-17T19:27:03.288Z,5.97
2022-08-17T19:29:44.075Z,5.00
2022-08-17T19:32:15.707Z,5.07
2022-08-17T19:34:44.618Z,5.38
2022-08-17T19:37:52.586Z,5.05
2022-08-17T19:40:52.301Z,4.72
2022-08-17T19:43:48.071Z,4.97
2022-08-17T19:46:48.563Z,4.22
2022-08-17T19:49:33.522Z,4.72
2022-08-17T19:52:50.036Z,5.38
2022-08-17T19:55:31.868Z,4.53
2022-08-17T19:58:36.143Z,4.60
2022-08-17T20:01:07.182Z,5.00
2022-08-17T20:03:54.087Z,4.30
2022-08-17T20:06:23.052Z,4.47
2022-08-17T20:09:02.878Z,4.97
2022-08-17T20:11:43.808Z,4.63
2022-08-17T20:14:21.880Z,3.90
2022-08-17T20:16:49.203Z,4.60
2022-08-17T20:19:21.802Z,3.90
2022-08-17T20:22:10.726Z,4.50
2022-08-17T20:25:06.299Z,4.07
2022-08-17T20:28:02.889Z,4.20
2022-08-17T20:30:40.837Z,4.05
2022-08-17T20:36:14.063Z,3.65
2022-08-17T20:38:57.497Z,3.60
2022-08-17T20:41:28.594Z,3.60
2022-08-17T20:43:59.155Z,3.78
2022-08-17T20:46:38.881Z,3.40
2022-08-17T20:49:16.477Z,4.00
2022-08-17T20:52:10.917Z,3.65
2022-08-17T20:54:51.216Z,3.70
2022-08-17T20:57:36.266Z,3.78
2022-08-17T21:00:28.234Z,3.63
2022-08-17T21:03:22.574Z,3.65
2022-08-17T21:06:11.136Z,3.80
2022-08-17T21:08:57.614Z,3.58
2022-08-17T21:11:56.975Z,3.78
2022-08-17T21:15:01.403Z,3.38
2022-08-17T21:17:39.310Z,4.05
2022-08-17T21:20:32.186Z,3.50
2022-08-17T21:23:18.011Z,4.10
2022-08-17T21:25:53.008Z,3.55
2022-08-17T21:29:00.618Z,3.30
2022-08-17T21:31:43.220Z,3.67
2022-08-17T21:34:16.392Z,3.63
2022-08-17T21:36:45.842Z,3.53
2022-08-17T21:39:19.344Z,3.38
2022-08-17T21:41:55.264Z,3.92
2022-08-17T21:44:31.988Z,3.85
2022-08-17T21:47:13.062Z,4.00
2022-08-17T21:49:40.386Z,3.70
2022-08-17T21:52:13.093Z,3.95
2022-08-17T21:54:48.264Z,3.55
2022-08-17T21:57:22.927Z,3.70
2022-08-17T21:59:58.737Z,4.03
2022-08-17T22:02:36.502Z,3.75
2022-08-17T22:05:06.691Z,3.60
2022-08-17T22:07:45.723Z,3.65
2022-08-17T22:10:28.619Z,3.70
2022-08-17T22:13:19.739Z,3.50
2022-08-17T22:15:50.634Z,3.75
2022-08-17T22:18:27.490Z,3.30
2022-08-17T22:20:58.033Z,3.60
2022-08-17T22:23:58.409Z,3.95
2022-08-17T22:26:47.541Z,3.17
2022-08-17T22:29:42.637Z,3.42
2022-08-17T22:34:39.054Z,3.38
2022-08-17T22:37:27.255Z,3.40
2022-08-17T22:39:59.431Z,3.60
2022-08-17T22:42:28.528Z,3.83
2022-08-17T22:44:55.854Z,3.22
2022-08-17T22:47:42.936Z,3.47
2022-08-17T22:50:25.836Z,3.78
2022-08-17T22:53:20.908Z,3.67
2022-08-17T22:59:09.241Z,3.08
2022-08-17T23:01:36.975Z,3.60
2022-08-17T23:04:32.300Z,3.17
2022-08-17T23:06:59.631Z,3.35
2022-08-17T23:09:27.143Z,3.40
2022-08-17T23:11:58.796Z,2.95
2022-08-17T23:14:31.736Z,3.40
2022-08-17T23:16:59.807Z,3.10
2022-08-17T23:19:28.567Z,3.05
2022-08-17T23:21:57.926Z,3.33
2022-08-17T23:24:30.961Z,2.80
2022-08-17T23:26:58.992Z,3.40
2022-08-17T23:29:29.447Z,3.40
2022-08-17T23:31:59.850Z,3.25
2022-08-17T23:34:28.111Z,3.75
2022-08-17T23:36:56.143Z,3.22
2022-08-17T23:39:28.051Z,2.95
2022-08-17T23:41:57.915Z,3.22
2022-08-17T23:44:26.223Z,3.20
2022-08-17T23:46:54.607Z,3.72
2022-08-17T23:49:23.405Z,3.17
2022-08-17T23:51:52.559Z,3.10
2022-08-17T23:54:22.689Z,2.85
2022-08-17T23:56:50.029Z,3.30
2022-08-17T23:59:20.127Z,3.47
